Time;durP1;ratioP1;P1;durP2;ratioP2;P2;SDS_P1;SDS_P2;PMS_P1;PMS_P2;Temp;Humidity;BMP_temperature;BMP_pressure;BME280_temperature;BME280_humidity;BME280_pressure;Samples;Min_cycle;Max_cycle;Signal;HPM_P1;HPM_P2
2022/01/19 00:00:14;;;;;;;14.40;8.45;;;;;;;;;;5010043;28;20033;-73
2022/01/19 00:02:40;;;;;;;33.08;13.20;;;;;;;;;;5010619;28;20022;-71
2022/01/19 00:05:07;;;;;;;14.32;8.15;;;;;;;;;;5010016;28;20022;-71
2022/01/19 00:07:33;;;;;;;12.23;7.57;;;;;;;;;;5010582;28;20042;-72
2022/01/19 00:10:04;;;;;;;15.02;8.27;;;;;;;;;;5010673;28;20109;-71
2022/01/19 00:12:30;;;;;;;20.80;10.20;;;;;;;;;;5010305;28;20030;-71
2022/01/19 00:14:56;;;;;;;10.38;7.55;;;;;;;;;;5010517;28;20467;-71
2022/01/19 00:17:22;;;;;;;11.15;7.68;;;;;;;;;;5012467;28;20113;-71
2022/01/19 00:19:48;;;;;;;13.70;7.60;;;;;;;;;;5007418;28;20054;-71
2022/01/19 00:22:14;;;;;;;13.77;7.18;;;;;;;;;;5012209;28;20026;-71
2022/01/19 00:24:42;;;;;;;13.45;8.55;;;;;;;;;;5012157;28;20025;-71
2022/01/19 00:27:08;;;;;;;14.50;7.40;;;;;;;;;;5011180;28;20049;-71
2022/01/19 00:29:34;;;;;;;11.32;7.07;;;;;;;;;;5012204;28;20068;-74
2022/01/19 00:32:00;;;;;;;9.57;6.75;;;;;;;;;;5012030;28;20037;-72
2022/01/19 00:34:28;;;;;;;12.07;7.93;;;;;;;;;;5012135;28;20117;-71
2022/01/19 00:36:54;;;;;;;11.32;6.72;;;;;;;;;;5012172;28;20454;-72
2022/01/19 00:39:20;;;;;;;9.55;6.30;;;;;;;;;;5013323;28;20104;-72
2022/01/19 00:41:46;;;;;;;11.50;8.02;;;;;;;;;;5031772;28;20049;-72
2022/01/19 00:44:12;;;;;;;14.95;7.68;;;;;;;;;;5013680;28;20022;-71
2022/01/19 00:46:38;;;;;;;10.13;8.13;;;;;;;;;;5031632;28;20485;-71
2022/01/19 00:49:03;;;;;;;20.55;10.95;;;;;;;;;;5031704;28;20104;-72
2022/01/19 00:51:29;;;;;;;19.33;10.75;;;;;;;;;;5031616;28;20372;-72
2022/01/19 00:53:55;;;;;;;14.75;9.00;;;;;;;;;;5031479;28;20032;-72
2022/01/19 00:56:21;;;;;;;10.88;6.68;;;;;;;;;;5031681;28;20048;-71
2022/01/19 00:58:47;;;;;;;13.60;8.30;;;;;;;;;;5031729;28;20026;-73
2022/01/19 01:01:13;;;;;;;12.70;7.88;;;;;;;;;;5027016;28;20029;-71
2022/01/19 01:03:39;;;;;;;15.90;7.93;;;;;;;;;;5011561;28;20030;-71
2022/01/19 01:06:05;;;;;;;12.02;7.53;;;;;;;;;;5012313;28;20053;-71
2022/01/19 01:08:31;;;;;;;11.70;8.15;;;;;;;;;;5012259;28;20028;-71
2022/01/19 01:10:58;;;;;;;16.63;8.30;;;;;;;;;;5011554;28;20112;-72
2022/01/19 01:16:02;;;;;;;14.52;9.00;;;;;;;;;;5012311;28;20022;-72
2022/01/19 01:18:29;;;;;;;13.40;8.68;;;;;;;;;;5015665;28;20026;-72
2022/01/19 01:20:56;;;;;;;12.73;8.73;;;;;;;;;;5015341;28;20017;-71
2022/01/19 01:23:23;;;;;;;17.40;9.50;;;;;;;;;;5015026;28;20057;-71
2022/01/19 01:25:49;;;;;;;14.68;8.13;;;;;;;;;;5015093;28;20030;-72
2022/01/19 01:28:15;;;;;;;13.18;8.80;;;;;;;;;;5015374;28;20093;-72
2022/01/19 01:30:42;;;;;;;12.45;8.75;;;;;;;;;;5013327;28;20105;-72
2022/01/19 01:33:08;;;;;;;16.92;9.45;;;;;;;;;;5012907;28;20034;-71
2022/01/19 01:35:34;;;;;;;15.60;8.70;;;;;;;;;;5013088;28;20026;-72
2022/01/19 01:38:00;;;;;;;14.02;8.93;;;;;;;;;;5013051;28;20026;-71
2022/01/19 01:40:27;;;;;;;14.07;8.90;;;;;;;;;;5015856;28;20034;-72
2022/01/19 01:42:54;;;;;;;14.90;8.98;;;;;;;;;;5013114;28;20160;-71
2022/01/19 01:45:25;;;;;;;16.10;9.93;;;;;;;;;;5014149;28;20022;-71
2022/01/19 01:48:01;;;;;;;14.85;9.13;;;;;;;;;;5014732;28;20028;-73
2022/01/19 01:53:27;;;;;;;13.75;8.95;;;;;;;;;;5014656;28;20033;-72
2022/01/19 01:55:57;;;;;;;15.13;9.45;;;;;;;;;;5014764;28;20029;-71
2022/01/19 01:58:23;;;;;;;15.98;10.15;;;;;;;;;;5013298;28;20413;-71
2022/01/19 02:00:49;;;;;;;13.50;9.93;;;;;;;;;;5014278;28;20480;-71
2022/01/19 02:03:15;;;;;;;12.35;9.15;;;;;;;;;;5014234;28;21106;-71
2022/01/19 02:06:00;;;;;;;13.80;9.48;;;;;;;;;;5014372;28;20033;-71
2022/01/19 02:08:35;;;;;;;16.52;10.70;;;;;;;;;;5013178;28;20443;-73
2022/01/19 02:11:34;;;;;;;15.88;9.75;;;;;;;;;;5014176;28;20097;-71
2022/01/19 02:16:52;;;;;;;16.45;10.43;;;;;;;;;;5014261;28;20095;-71
2022/01/19 02:22:04;;;;;;;15.88;10.23;;;;;;;;;;5014003;28;20040;-72
2022/01/19 02:24:41;;;;;;;14.93;10.30;;;;;;;;;;5013754;28;20025;-71
2022/01/19 02:28:57;;;;;;;14.30;10.18;;;;;;;;;;5013569;28;20028;-73
2022/01/19 02:40:56;;;;;;;15.10;9.65;;;;;;;;;;5013450;28;20104;-71
2022/01/19 02:43:25;;;;;;;15.45;9.00;;;;;;;;;;5012142;28;20109;-71
2022/01/19 02:51:20;;;;;;;14.75;9.27;;;;;;;;;;5013530;28;20052;-71
2022/01/19 02:53:46;;;;;;;15.85;10.25;;;;;;;;;;5013442;28;20396;-71
2022/01/19 02:56:23;;;;;;;13.32;9.18;;;;;;;;;;5013535;28;20026;-71
2022/01/19 02:58:54;;;;;;;14.13;9.68;;;;;;;;;;5013490;28;20044;-71
2022/01/19 03:09:28;;;;;;;15.98;9.48;;;;;;;;;;5014025;28;20026;-71
2022/01/19 03:11:55;;;;;;;15.95;9.77;;;;;;;;;;5013567;28;20117;-71
2022/01/19 03:14:21;;;;;;;11.02;8.18;;;;;;;;;;5012982;28;20113;-73
2022/01/19 03:16:47;;;;;;;11.98;9.20;;;;;;;;;;5013099;28;20037;-71
2022/01/19 03:19:13;;;;;;;14.38;8.57;;;;;;;;;;5012955;28;20038;-71
2022/01/19 03:21:40;;;;;;;14.77;9.30;;;;;;;;;;5011508;28;20036;-71
2022/01/19 03:24:07;;;;;;;14.55;9.07;;;;;;;;;;5012825;28;20395;-70
2022/01/19 03:26:33;;;;;;;12.20;8.18;;;;;;;;;;5012765;28;20022;-71
2022/01/19 03:28:59;;;;;;;13.07;7.90;;;;;;;;;;5012954;28;20032;-72
2022/01/19 03:31:25;;;;;;;10.48;7.93;;;;;;;;;;5013124;28;20488;-71
2022/01/19 03:33:51;;;;;;;11.70;7.65;;;;;;;;;;5012457;28;20513;-72
2022/01/19 03:36:17;;;;;;;11.30;7.72;;;;;;;;;;5012100;28;20034;-71
2022/01/19 03:38:44;;;;;;;11.20;7.50;;;;;;;;;;5011636;28;20105;-70
2022/01/19 03:41:10;;;;;;;12.10;8.00;;;;;;;;;;5025057;28;20052;-70
2022/01/19 03:43:36;;;;;;;10.10;6.47;;;;;;;;;;5032581;28;20452;-70
2022/01/19 03:46:04;;;;;;;9.23;6.10;;;;;;;;;;5032693;28;20017;-70
2022/01/19 03:48:42;;;;;;;10.70;6.05;;;;;;;;;;5032332;28;20018;-71
2022/01/19 03:51:08;;;;;;;9.02;6.60;;;;;;;;;;5032937;28;20029;-71
2022/01/19 03:53:34;;;;;;;10.73;6.53;;;;;;;;;;5033161;28;20032;-71
2022/01/19 03:56:01;;;;;;;8.55;6.32;;;;;;;;;;5015630;28;20048;-72
2022/01/19 03:58:27;;;;;;;11.73;6.95;;;;;;;;;;5032681;28;20021;-71
2022/01/19 04:00:54;;;;;;;13.98;8.48;;;;;;;;;;5034802;28;20395;-71
2022/01/19 04:03:27;;;;;;;17.45;8.40;;;;;;;;;;5034023;28;20022;-70
2022/01/19 04:05:58;;;;;;;14.00;8.70;;;;;;;;;;5015321;28;20558;-70
2022/01/19 04:08:25;;;;;;;;;;;;;;;;;;5033009;28;20459;-70
2022/01/19 04:10:51;;;;;;;19.55;9.73;;;;;;;;;;5032809;28;19905;-70
2022/01/19 04:15:50;;;;;;;14.80;9.38;;;;;;;;;;5031100;28;20376;-71
2022/01/19 04:18:16;;;;;;;19.50;10.02;;;;;;;;;;5031373;28;20495;-71
2022/01/19 04:20:43;;;;;;;17.67;10.48;;;;;;;;;;5030995;28;20129;-71
2022/01/19 04:23:09;;;;;;;22.75;9.82;;;;;;;;;;5030534;28;20021;-71
2022/01/19 04:25:36;;;;;;;18.02;10.25;;;;;;;;;;5032635;28;20048;-72
2022/01/19 04:28:07;;;;;;;18.98;10.82;;;;;;;;;;5030112;28;20356;-71
2022/01/19 04:30:33;;;;;;;17.80;11.05;;;;;;;;;;4997732;28;20060;-70
2022/01/19 04:35:28;;;;;;;17.05;10.50;;;;;;;;;;5012136;28;20396;-71
2022/01/19 05:05:26;;;;;;;23.27;11.50;;;;;;;;;;5015593;28;20100;-71
2022/01/19 05:08:02;;;;;;;19.42;10.48;;;;;;;;;;4997946;28;20110;-70
2022/01/19 05:13:29;;;;;;;17.20;10.13;;;;;;;;;;5015258;28;20034;-70
2022/01/19 05:15:55;;;;;;;17.65;10.27;;;;;;;;;;5015388;28;20032;-70
2022/01/19 05:18:21;;;;;;;17.30;10.95;;;;;;;;;;5015425;28;20026;-70
2022/01/19 05:20:47;;;;;;;28.23;13.73;;;;;;;;;;5015004;28;20113;-70
2022/01/19 05:23:14;;;;;;;30.65;13.30;;;;;;;;;;5014957;28;20021;-71
2022/01/19 05:25:41;;;;;;;26.10;12.93;;;;;;;;;;5015050;28;20030;-71
2022/01/19 05:28:07;;;;;;;25.35;12.05;;;;;;;;;;5015340;28;20100;-70
2022/01/19 05:30:33;;;;;;;49.50;15.65;;;;;;;;;;5015527;28;20029;-71
2022/01/19 05:32:59;;;;;;;36.58;13.55;;;;;;;;;;5015270;28;20030;-70
2022/01/19 05:35:27;;;;;;;29.23;12.52;;;;;;;;;;4997530;28;20029;-71
2022/01/19 05:37:53;;;;;;;30.92;13.20;;;;;;;;;;5015773;28;20037;-70
2022/01/19 05:40:19;;;;;;;25.75;12.40;;;;;;;;;;5034087;28;20041;-70
2022/01/19 05:42:49;;;;;;;23.02;11.65;;;;;;;;;;5034340;28;20472;-70
2022/01/19 05:45:16;;;;;;;20.75;10.45;;;;;;;;;;5034242;28;20028;-70
2022/01/19 05:47:42;;;;;;;21.10;9.68;;;;;;;;;;5046541;22;20047;-68
2022/01/19 05:50:09;;;;;;;19.95;11.35;;;;;;;;;;5050639;28;20033;-69
2022/01/19 05:52:34;;;;;;;23.50;12.82;;;;;;;;;;5054091;28;20021;-68
2022/01/19 05:55:00;;;;;;;23.55;12.18;;;;;;;;;;5043067;28;20030;-69
2022/01/19 05:57:26;;;;;;;23.80;12.25;;;;;;;;;;5035414;28;20079;-69
2022/01/19 05:59:52;;;;;;;26.52;13.45;;;;;;;;;;5046498;28;20025;-69
2022/01/19 06:02:18;;;;;;;24.20;12.65;;;;;;;;;;5035388;28;20034;-69
2022/01/19 06:04:44;;;;;;;22.23;10.75;;;;;;;;;;5053132;28;20061;-68
2022/01/19 06:07:12;;;;;;;24.02;11.70;;;;;;;;;;5034451;28;20087;-69
2022/01/19 06:12:11;;;;;;;19.45;11.15;;;;;;;;;;5033661;28;20089;-71
2022/01/19 06:14:38;;;;;;;23.80;12.07;;;;;;;;;;5033361;28;20168;-69
2022/01/19 06:17:04;;;;;;;30.70;14.93;;;;;;;;;;5014977;28;20029;-70
2022/01/19 06:19:31;;;;;;;25.90;12.07;;;;;;;;;;5066722;28;20462;-69
2022/01/19 06:21:57;;;;;;;24.98;13.43;;;;;;;;;;5073096;28;20036;-70
2022/01/19 06:24:23;;;;;;;26.33;14.15;;;;;;;;;;5072683;28;20428;-69
2022/01/19 06:26:49;;;;;;;30.35;14.43;;;;;;;;;;5054967;28;20032;-70
2022/01/19 06:29:15;;;;;;;28.02;13.13;;;;;;;;;;5072752;28;20453;-70
2022/01/19 06:31:41;;;;;;;24.17;13.18;;;;;;;;;;5073221;28;20029;-69
2022/01/19 06:34:07;;;;;;;32.28;14.43;;;;;;;;;;5054677;28;20370;-70
2022/01/19 06:36:33;;;;;;;31.15;15.73;;;;;;;;;;5072359;28;20442;-67
2022/01/19 06:38:59;;;;;;;34.60;16.65;;;;;;;;;;5072596;28;20032;-70
2022/01/19 06:41:25;;;;;;;33.60;17.05;;;;;;;;;;5072679;28;20063;-71
2022/01/19 06:43:51;;;;;;;30.27;15.55;;;;;;;;;;5072862;28;20020;-68
2022/01/19 06:46:17;;;;;;;34.28;16.85;;;;;;;;;;5072999;28;20097;-70
2022/01/19 06:48:44;;;;;;;35.92;17.90;;;;;;;;;;5072573;28;20032;-68
2022/01/19 06:51:10;;;;;;;34.92;18.58;;;;;;;;;;5054385;28;20124;-69
2022/01/19 06:53:36;;;;;;;33.17;18.38;;;;;;;;;;5072296;28;20033;-70
2022/01/19 06:56:02;;;;;;;34.78;18.80;;;;;;;;;;5072181;28;20036;-69
2022/01/19 06:58:29;;;;;;;41.28;21.27;;;;;;;;;;5072031;28;20044;-71
2022/01/19 07:00:56;;;;;;;37.03;19.25;;;;;;;;;;5072346;28;20028;-68
2022/01/19 07:03:22;;;;;;;38.53;20.50;;;;;;;;;;5072191;28;20025;-70
2022/01/19 07:05:48;;;;;;;40.75;20.83;;;;;;;;;;5070697;28;20463;-69
2022/01/19 07:08:14;;;;;;;35.50;17.92;;;;;;;;;;5057818;28;20033;-69
2022/01/19 07:10:40;;;;;;;39.72;21.08;;;;;;;;;;5050588;28;20024;-68
2022/01/19 07:13:07;;;;;;;42.58;21.92;;;;;;;;;;5047868;28;20033;-68
2022/01/19 07:15:33;;;;;;;42.92;20.88;;;;;;;;;;5032502;28;20040;-70
2022/01/19 07:17:59;;;;;;;45.28;20.95;;;;;;;;;;5050856;28;20028;-69
2022/01/19 07:20:26;;;;;;;41.33;21.35;;;;;;;;;;5051128;28;20083;-70
2022/01/19 07:22:56;;;;;;;36.25;20.10;;;;;;;;;;5051748;28;20021;-70
2022/01/19 07:25:22;;;;;;;39.28;19.52;;;;;;;;;;5050576;28;20067;-69
2022/01/19 07:27:48;;;;;;;42.00;19.60;;;;;;;;;;5051036;28;20087;-70
2022/01/19 07:30:14;;;;;;;34.30;19.05;;;;;;;;;;5051919;28;20025;-70
2022/01/19 07:32:40;;;;;;;37.33;19.35;;;;;;;;;;5051877;28;20028;-69
2022/01/19 07:35:07;;;;;;;40.58;20.23;;;;;;;;;;5051406;28;20025;-70
2022/01/19 07:37:33;;;;;;;30.50;18.17;;;;;;;;;;5051692;28;20124;-69
2022/01/19 07:39:59;;;;;;;35.33;19.00;;;;;;;;;;5050253;28;20284;-68
2022/01/19 07:42:26;;;;;;;33.33;18.13;;;;;;;;;;5051628;28;20025;-69
2022/01/19 07:44:53;;;;;;;36.33;19.05;;;;;;;;;;5051706;28;20017;-69
2022/01/19 07:47:20;;;;;;;32.90;17.05;;;;;;;;;;5051293;28;20040;-69
2022/01/19 07:49:46;;;;;;;33.25;18.00;;;;;;;;;;5041965;28;20021;-70
2022/01/19 07:52:11;;;;;;;36.10;18.35;;;;;;;;;;5047741;28;20505;-69
2022/01/19 07:54:37;;;;;;;30.27;16.98;;;;;;;;;;5051405;28;20021;-70
2022/01/19 07:57:04;;;;;;;32.35;17.65;;;;;;;;;;5051644;28;20029;-69
2022/01/19 07:59:31;;;;;;;27.38;16.08;;;;;;;;;;5051535;28;20028;-76
2022/01/19 08:01:57;;;;;;;28.15;16.00;;;;;;;;;;5051511;28;20033;-75
2022/01/19 08:04:23;;;;;;;29.02;16.63;;;;;;;;;;5052298;28;20475;-76
2022/01/19 08:06:54;;;;;;;25.27;15.15;;;;;;;;;;5071947;28;20029;-76
2022/01/19 08:09:20;;;;;;;26.27;16.23;;;;;;;;;;5068485;28;20471;-77
2022/01/19 08:11:46;;;;;;;24.45;14.88;;;;;;;;;;5049747;28;20664;-75
2022/01/19 08:14:12;;;;;;;25.63;15.23;;;;;;;;;;5034227;28;20386;-76
2022/01/19 08:16:38;;;;;;;22.80;14.88;;;;;;;;;;5048511;28;20025;-76
2022/01/19 08:19:04;;;;;;;25.38;16.00;;;;;;;;;;5024520;28;20032;-78
2022/01/19 08:21:30;;;;;;;30.88;16.08;;;;;;;;;;5052619;28;20025;-79
2022/01/19 08:23:56;;;;;;;29.58;16.90;;;;;;;;;;5051960;28;20112;-76
2022/01/19 08:26:22;;;;;;;28.17;16.48;;;;;;;;;;5055666;28;20047;-77
2022/01/19 08:28:51;;;;;;;28.48;16.50;;;;;;;;;;5055356;28;20466;-73
2022/01/19 08:31:17;;;;;;;25.60;15.52;;;;;;;;;;5056058;28;20037;-71
2022/01/19 08:33:43;;;;;;;24.80;14.57;;;;;;;;;;5056549;28;20086;-71
2022/01/19 08:36:09;;;;;;;27.23;16.35;;;;;;;;;;5055191;28;20069;-69
2022/01/19 08:38:35;;;;;;;24.17;14.77;;;;;;;;;;5056366;28;20549;-71
2022/01/19 08:41:01;;;;;;;22.85;13.90;;;;;;;;;;5056137;28;20021;-72
2022/01/19 08:43:27;;;;;;;22.88;14.18;;;;;;;;;;5038262;28;20475;-71
2022/01/19 08:45:54;;;;;;;24.60;15.65;;;;;;;;;;5055789;28;20024;-73
2022/01/19 08:48:20;;;;;;;25.63;17.20;;;;;;;;;;5055467;28;20466;-74
2022/01/19 08:50:46;;;;;;;24.27;14.57;;;;;;;;;;5055480;28;20028;-72
2022/01/19 08:53:12;;;;;;;23.35;14.55;;;;;;;;;;5057482;28;20495;-71
2022/01/19 08:55:38;;;;;;;21.60;13.85;;;;;;;;;;5057041;28;20544;-72
2022/01/19 08:58:05;;;;;;;22.60;14.50;;;;;;;;;;5039187;28;20060;-72
2022/01/19 09:00:31;;;;;;;28.30;17.40;;;;;;;;;;5058629;28;20112;-72
2022/01/19 09:02:57;;;;;;;24.70;15.85;;;;;;;;;;5039295;28;20071;-72
2022/01/19 09:05:23;;;;;;;22.33;14.55;;;;;;;;;;5056589;28;20026;-72
2022/01/19 09:07:49;;;;;;;22.90;14.27;;;;;;;;;;5056951;28;20032;-73
2022/01/19 09:10:16;;;;;;;24.27;14.48;;;;;;;;;;5058317;28;20066;-73
2022/01/19 09:12:43;;;;;;;25.27;15.98;;;;;;;;;;5060323;28;20025;-72
2022/01/19 09:15:09;;;;;;;23.45;15.45;;;;;;;;;;5044842;28;20032;-72
2022/01/19 09:17:36;;;;;;;23.40;14.88;;;;;;;;;;5064123;28;20029;-73
2022/01/19 09:20:02;;;;;;;21.90;14.05;;;;;;;;;;5066201;28;20048;-75
2022/01/19 09:22:28;;;;;;;24.45;15.68;;;;;;;;;;5071385;28;20032;-71
2022/01/19 09:24:54;;;;;;;26.48;16.38;;;;;;;;;;5081301;28;20020;-72
2022/01/19 09:27:21;;;;;;;24.40;16.13;;;;;;;;;;5055973;28;20028;-72
2022/01/19 09:29:47;;;;;;;23.30;16.33;;;;;;;;;;5058268;28;20170;-74
2022/01/19 09:32:13;;;;;;;24.75;15.60;;;;;;;;;;5076262;28;20307;-76
2022/01/19 09:34:42;;;;;;;28.88;16.45;;;;;;;;;;5066249;28;20032;-73
2022/01/19 09:37:08;;;;;;;25.38;16.77;;;;;;;;;;5055016;28;20108;-73
2022/01/19 09:39:34;;;;;;;21.77;15.50;;;;;;;;;;5058438;28;20025;-75
2022/01/19 09:42:00;;;;;;;23.08;15.55;;;;;;;;;;5062632;28;20025;-78
2022/01/19 09:44:29;;;;;;;24.13;16.35;;;;;;;;;;5057450;28;20025;-73
2022/01/19 09:46:55;;;;;;;26.15;16.98;;;;;;;;;;5058500;28;20578;-71
2022/01/19 09:49:22;;;;;;;26.13;16.95;;;;;;;;;;5056700;28;20079;-75
2022/01/19 09:51:49;;;;;;;25.00;16.45;;;;;;;;;;5050856;28;20116;-75
2022/01/19 09:54:17;;;;;;;28.08;17.38;;;;;;;;;;5055192;28;20079;-75
2022/01/19 09:56:44;;;;;;;26.40;15.38;;;;;;;;;;5047489;28;20404;-75
2022/01/19 09:59:13;;;;;;;27.23;16.67;;;;;;;;;;5053418;28;20387;-75
2022/01/19 10:01:48;;;;;;;28.75;16.55;;;;;;;;;;5053510;28;20106;-75
2022/01/19 10:04:22;;;;;;;25.77;15.52;;;;;;;;;;5054727;28;20024;-75
2022/01/19 10:06:48;;;;;;;32.28;21.75;;;;;;;;;;5036692;28;20029;-76
2022/01/19 10:09:22;;;;;;;30.17;20.42;;;;;;;;;;5032587;28;20402;-74
2022/01/19 10:19:25;;;;;;;18.73;12.48;;;;;;;;;;5033813;28;20065;-75
2022/01/19 10:22:03;;;;;;;18.85;11.48;;;;;;;;;;5033090;28;20040;-74
2022/01/19 10:24:50;;;;;;;21.40;12.30;;;;;;;;;;5033074;28;20052;-72
2022/01/19 10:27:35;;;;;;;18.88;12.25;;;;;;;;;;5033867;28;20021;-70
2022/01/19 10:30:03;;;;;;;20.75;12.15;;;;;;;;;;5033568;28;20387;-71
2022/01/19 10:32:50;;;;;;;16.92;12.30;;;;;;;;;;5033821;28;20403;-72
2022/01/19 10:35:22;;;;;;;18.00;11.80;;;;;;;;;;5034009;28;20025;-76
2022/01/19 10:37:50;;;;;;;21.38;12.50;;;;;;;;;;5033189;28;20036;-69
2022/01/19 10:40:17;;;;;;;19.30;11.40;;;;;;;;;;5033153;28;20030;-72
2022/01/19 10:42:43;;;;;;;18.45;12.13;;;;;;;;;;5032735;28;20360;-72
2022/01/19 10:45:10;;;;;;;18.52;11.60;;;;;;;;;;5030738;28;20028;-71
2022/01/19 10:47:42;;;;;;;18.38;11.23;;;;;;;;;;5030756;28;20040;-72
2022/01/19 10:50:09;;;;;;;18.20;11.20;;;;;;;;;;5030514;28;20044;-71
2022/01/19 10:52:37;;;;;;;19.30;11.75;;;;;;;;;;5033004;28;20060;-72
2022/01/19 10:55:06;;;;;;;18.23;11.30;;;;;;;;;;5032603;28;20513;-72
2022/01/19 10:57:32;;;;;;;20.13;12.00;;;;;;;;;;5032402;28;20117;-71
2022/01/19 11:00:17;;;;;;;17.65;10.60;;;;;;;;;;5031580;28;20454;-71
2022/01/19 11:02:44;;;;;;;16.73;10.88;;;;;;;;;;5032511;28;20053;-71
2022/01/19 11:05:10;;;;;;;17.63;10.98;;;;;;;;;;5032715;28;20032;-72
2022/01/19 11:07:36;;;;;;;18.67;11.52;;;;;;;;;;5032116;28;20025;-69
2022/01/19 11:12:44;;;;;;;15.93;10.00;;;;;;;;;;5032695;28;20487;-70
2022/01/19 11:15:10;;;;;;;15.43;10.90;;;;;;;;;;5032653;28;20032;-71
2022/01/19 11:17:36;;;;;;;17.05;10.85;;;;;;;;;;5032508;28;20032;-71
2022/01/19 11:20:07;;;;;;;17.48;10.82;;;;;;;;;;5032390;28;20029;-71
2022/01/19 11:22:36;;;;;;;22.25;13.00;;;;;;;;;;5032494;28;20108;-72
2022/01/19 11:25:09;;;;;;;15.52;10.32;;;;;;;;;;5034101;28;20022;-73
2022/01/19 11:27:37;;;;;;;17.48;11.50;;;;;;;;;;5072046;28;20358;-72
2022/01/19 11:30:12;;;;;;;15.45;10.35;;;;;;;;;;5072141;28;20034;-74
2022/01/19 11:32:39;;;;;;;18.05;11.52;;;;;;;;;;5071973;28;20040;-72
2022/01/19 11:35:05;;;;;;;18.27;12.13;;;;;;;;;;5071529;28;20040;-73
2022/01/19 11:37:34;;;;;;;15.18;10.35;;;;;;;;;;5052075;28;20036;-73
2022/01/19 11:40:00;;;;;;;17.45;11.25;;;;;;;;;;5052167;28;20538;-74
2022/01/19 11:42:26;;;;;;;16.20;10.45;;;;;;;;;;5051524;28;20172;-75
2022/01/19 11:44:52;;;;;;;20.17;11.82;;;;;;;;;;5033394;28;20028;-74
2022/01/19 11:47:21;;;;;;;17.52;10.63;;;;;;;;;;5073939;22;20047;-75
2022/01/19 11:49:50;;;;;;;15.88;11.45;;;;;;;;;;5013465;28;20037;-74
2022/01/19 11:52:19;;;;;;;17.70;12.13;;;;;;;;;;5012223;28;20492;-72
2022/01/19 11:54:46;;;;;;;17.17;11.63;;;;;;;;;;5010529;28;20034;-73
2022/01/19 11:57:14;;;;;;;15.30;10.93;;;;;;;;;;5011611;28;20030;-72
2022/01/19 11:59:45;;;;;;;17.70;12.07;;;;;;;;;;5011288;28;20029;-73
2022/01/19 12:02:32;;;;;;;16.90;11.00;;;;;;;;;;5011574;28;20034;-73
2022/01/19 12:05:01;;;;;;;20.67;12.40;;;;;;;;;;5011434;28;20541;-74
2022/01/19 12:07:48;;;;;;;16.98;11.02;;;;;;;;;;5011848;28;20464;-73
2022/01/19 12:10:22;;;;;;;20.10;12.00;;;;;;;;;;5012542;28;20499;-73
2022/01/19 12:13:10;;;;;;;19.05;11.77;;;;;;;;;;5012110;28;20396;-73
2022/01/19 12:15:52;;;;;;;16.00;11.07;;;;;;;;;;5014018;28;20086;-73
2022/01/19 12:18:37;;;;;;;16.52;10.82;;;;;;;;;;5031957;28;20495;-74
2022/01/19 12:21:04;;;;;;;21.42;12.48;;;;;;;;;;5026551;28;20117;-72
2022/01/19 12:23:31;;;;;;;19.80;11.95;;;;;;;;;;5031912;28;20026;-74
2022/01/19 12:25:57;;;;;;;16.25;11.50;;;;;;;;;;5032279;28;20029;-74
2022/01/19 12:28:42;;;;;;;17.40;11.20;;;;;;;;;;5031775;28;20502;-73
2022/01/19 12:31:26;;;;;;;19.08;11.82;;;;;;;;;;5031914;28;20030;-73
2022/01/19 12:34:01;;;;;;;19.65;12.20;;;;;;;;;;5031348;28;20029;-74
2022/01/19 12:36:49;;;;;;;17.42;11.45;;;;;;;;;;5031665;28;20070;-73
2022/01/19 12:39:27;;;;;;;21.38;12.82;;;;;;;;;;5031624;28;20082;-73
2022/01/19 12:41:59;;;;;;;17.98;11.48;;;;;;;;;;5031597;28;20029;-72
2022/01/19 12:44:43;;;;;;;18.33;11.68;;;;;;;;;;5031322;28;20536;-73
2022/01/19 12:47:29;;;;;;;16.60;11.07;;;;;;;;;;5031460;28;20026;-71
2022/01/19 12:49:57;;;;;;;16.58;11.27;;;;;;;;;;4990908;28;20040;-72
2022/01/19 12:52:24;;;;;;;18.40;11.57;;;;;;;;;;5031588;28;20076;-72
2022/01/19 12:54:51;;;;;;;18.65;11.65;;;;;;;;;;5012695;28;20396;-75
2022/01/19 12:57:17;;;;;;;16.80;11.45;;;;;;;;;;5029476;28;20048;-72
2022/01/19 12:59:44;;;;;;;17.50;11.75;;;;;;;;;;5030162;28;20115;-72
2022/01/19 13:02:14;;;;;;;16.10;10.77;;;;;;;;;;5029401;28;20036;-73
2022/01/19 13:04:40;;;;;;;15.07;9.95;;;;;;;;;;5029225;28;20028;-69
2022/01/19 13:07:19;;;;;;;16.48;11.50;;;;;;;;;;5028622;28;20488;-73
2022/01/19 13:10:08;;;;;;;16.92;10.77;;;;;;;;;;5010438;28;20017;-73
2022/01/19 13:12:36;;;;;;;13.07;10.07;;;;;;;;;;5030915;28;20479;-72
2022/01/19 13:15:03;;;;;;;15.38;10.02;;;;;;;;;;5033341;28;20022;-72
2022/01/19 13:17:42;;;;;;;12.52;9.00;;;;;;;;;;5033222;28;20025;-72
2022/01/19 13:20:12;;;;;;;13.65;9.15;;;;;;;;;;5033690;28;20029;-73
2022/01/19 13:22:54;;;;;;;14.13;8.73;;;;;;;;;;5033699;28;20061;-71
2022/01/19 13:25:22;;;;;;;16.83;10.32;;;;;;;;;;5035068;28;20025;-74
2022/01/19 13:27:48;;;;;;;11.85;8.68;;;;;;;;;;5034734;28;20100;-70
2022/01/19 13:30:15;;;;;;;11.73;9.23;;;;;;;;;;5017222;28;20018;-73
2022/01/19 13:32:41;;;;;;;13.18;9.43;;;;;;;;;;5034734;28;20029;-72
2022/01/19 13:35:11;;;;;;;12.60;8.60;;;;;;;;;;5033966;28;20038;-74
2022/01/19 13:37:38;;;;;;;12.10;8.27;;;;;;;;;;5034102;28;20030;-71
2022/01/19 13:40:05;;;;;;;12.20;9.00;;;;;;;;;;5034160;28;20025;-72
2022/01/19 13:42:37;;;;;;;14.80;8.52;;;;;;;;;;5033577;28;20029;-73
2022/01/19 13:45:09;;;;;;;11.32;8.57;;;;;;;;;;5032281;28;20086;-71
2022/01/19 13:47:52;;;;;;;11.57;8.65;;;;;;;;;;5033512;28;20512;-73
2022/01/19 13:50:19;;;;;;;13.13;8.50;;;;;;;;;;4996631;28;20509;-73
2022/01/19 13:52:45;;;;;;;11.60;8.25;;;;;;;;;;5013525;28;20026;-70
2022/01/19 13:55:21;;;;;;;11.65;8.15;;;;;;;;;;5013632;28;20160;-72
2022/01/19 13:57:47;;;;;;;14.43;8.85;;;;;;;;;;4996039;28;20406;-71
2022/01/19 14:00:15;;;;;;;14.95;8.65;;;;;;;;;;5015523;28;20030;-73
2022/01/19 14:02:52;;;;;;;12.70;8.52;;;;;;;;;;5015110;28;20152;-72
2022/01/19 14:05:18;;;;;;;12.30;8.30;;;;;;;;;;5015446;28;20109;-72
2022/01/19 14:07:47;;;;;;;12.63;8.20;;;;;;;;;;5014863;28;20369;-72
2022/01/19 14:10:13;;;;;;;11.93;7.85;;;;;;;;;;5014964;28;20028;-72
2022/01/19 14:12:40;;;;;;;15.68;8.70;;;;;;;;;;5014759;28;20370;-72
2022/01/19 14:15:10;;;;;;;9.30;6.78;;;;;;;;;;5015674;28;20041;-71
2022/01/19 14:17:40;;;;;;;10.95;7.03;;;;;;;;;;5016399;28;20030;-72
2022/01/19 14:20:14;;;;;;;12.27;8.98;;;;;;;;;;5015258;28;20042;-72
2022/01/19 14:22:40;;;;;;;10.00;7.28;;;;;;;;;;5014551;28;20033;-72
2022/01/19 14:25:07;;;;;;;8.48;6.88;;;;;;;;;;5013812;28;20022;-73
2022/01/19 14:27:38;;;;;;;11.23;7.70;;;;;;;;;;5021236;28;20189;-70
2022/01/19 14:30:09;;;;;;;10.85;7.25;;;;;;;;;;5034377;28;20069;-73
2022/01/19 14:32:35;;;;;;;;;;;;;;;;;;5016357;28;20029;-72
2022/01/19 14:35:02;;;;;;;11.18;7.10;;;;;;;;;;5033089;28;19912;-74
2022/01/19 14:37:27;;;;;;;10.23;7.15;;;;;;;;;;5033388;28;20570;-71
2022/01/19 14:39:59;;;;;;;10.27;7.60;;;;;;;;;;5015248;28;20025;-71
2022/01/19 14:42:30;;;;;;;11.00;6.88;;;;;;;;;;5032674;28;20029;-71
2022/01/19 14:45:01;;;;;;;;;;;;;;;;;;5033009;28;20669;-72
2022/01/19 14:47:38;;;;;;;13.18;7.60;;;;;;;;;;5032364;28;19916;-72
2022/01/19 14:50:16;;;;;;;8.85;6.90;;;;;;;;;;5032720;28;20029;-71
2022/01/19 14:52:42;;;;;;;13.98;8.25;;;;;;;;;;5032945;28;20450;-71
2022/01/19 14:55:08;;;;;;;15.50;8.57;;;;;;;;;;5032633;28;20101;-71
2022/01/19 14:57:34;;;;;;;14.38;7.95;;;;;;;;;;5032035;28;20034;-70
2022/01/19 15:00:02;;;;;;;13.82;8.68;;;;;;;;;;5032746;28;20439;-71
2022/01/19 15:02:29;;;;;;;14.07;9.38;;;;;;;;;;5033035;28;20041;-72
2022/01/19 15:04:55;;;;;;;18.15;9.20;;;;;;;;;;5032805;28;20044;-72
2022/01/19 15:07:21;;;;;;;14.45;9.35;;;;;;;;;;5032312;28;20484;-71
2022/01/19 15:09:47;;;;;;;12.43;7.43;;;;;;;;;;5014819;28;20381;-70
2022/01/19 15:12:13;;;;;;;14.60;9.38;;;;;;;;;;5032182;28;20087;-71
2022/01/19 15:14:40;;;;;;;18.60;9.65;;;;;;;;;;5032010;28;20108;-70
2022/01/19 15:17:08;;;;;;;16.63;9.98;;;;;;;;;;5031720;28;20028;-71
2022/01/19 15:19:34;;;;;;;17.73;10.88;;;;;;;;;;5031888;28;20034;-70
2022/01/19 15:22:00;;;;;;;19.42;11.70;;;;;;;;;;5014145;28;20026;-71
2022/01/19 15:24:26;;;;;;;16.52;10.30;;;;;;;;;;5031956;28;20037;-72
2022/01/19 15:26:52;;;;;;;15.63;9.93;;;;;;;;;;5032255;28;20078;-72
2022/01/19 15:29:18;;;;;;;18.35;10.63;;;;;;;;;;5030845;28;20100;-72
2022/01/19 15:31:45;;;;;;;16.33;10.68;;;;;;;;;;5031407;28;20028;-72
2022/01/19 15:34:11;;;;;;;13.13;8.27;;;;;;;;;;5031685;28;20392;-72
2022/01/19 15:36:37;;;;;;;11.65;7.13;;;;;;;;;;5014081;28;20091;-71
2022/01/19 15:39:07;;;;;;;12.50;7.80;;;;;;;;;;5031541;28;20025;-72
2022/01/19 15:41:33;;;;;;;11.82;6.47;;;;;;;;;;5031516;28;20553;-72
2022/01/19 15:43:59;;;;;;;14.90;6.97;;;;;;;;;;5031316;28;20026;-71
2022/01/19 15:46:25;;;;;;;8.55;5.40;;;;;;;;;;5031651;28;20086;-70
2022/01/19 15:48:51;;;;;;;8.07;5.75;;;;;;;;;;5031544;28;20074;-72
2022/01/19 15:51:17;;;;;;;8.10;5.82;;;;;;;;;;5014031;28;20029;-72
2022/01/19 15:53:43;;;;;;;9.45;5.25;;;;;;;;;;5031391;28;20034;-73